Diane — WDF2440 — position and weather

sailwx.info

Track history (hours):
 
Tides and Currents Weather Stations Pressure Air Temp Water Temp Dewpoint Dewpoint Depression Visibility Wind Speed Wind Dir Waves Ship Positions

Diane

Owner: Enterprise Marine Services, LLC, San Antonio, TX. More information available from US FCC via Universal Licensing System and Coast Guard Vessel Documentation Center.

Last reported at 2018-Apr-19 19:13 UTC. Time now 2018-Apr-20 12:42 UTC.
Position N 29°32' W 090°50'.

Length 24 m; draft 2.9 m.

Type: . MMSI: 367131150.

Date/timePositionNaut miles runAvg speedWind from/ knotsBaromVisibWave heightAir tempDewpointWater temp
2018-Apr-19 19:13N 29°32' W 090°50'1 6.7
2018-Apr-19 19:01N 29°32' W 090°49'3 5.6
2018-Apr-19 18:30N 29°33' W 090°45'2 4.5
2018-Apr-19 18:00N 29°34' W 090°43'1 1.1
2018-Apr-19 17:30N 29°34' W 090°43'0 0.0
2018-Apr-19 17:00N 29°34' W 090°43'0 0.0
2018-Apr-19 16:29N 29°34' W 090°43'0 0.1
2018-Apr-19 16:00N 29°34' W 090°43'0 0.0
2018-Apr-19 15:30N 29°34' W 090°43'0 0.0
2018-Apr-19 15:00N 29°34' W 090°43'0 0.0
2018-Apr-19 14:30N 29°34' W 090°43'0 0.0
2018-Apr-19 14:00N 29°34' W 090°43'0 0.0
2018-Apr-19 13:30N 29°34' W 090°43'0 0.0
2018-Apr-19 13:00N 29°34' W 090°43'0 0.0
2018-Apr-19 12:30N 29°34' W 090°43'0 0.3
2018-Apr-19 12:00N 29°34' W 090°43'0 0.0
2018-Apr-19 11:30N 29°34' W 090°43'2 3.2
2018-Apr-19 11:00N 29°35' W 090°43'2 3.0
2018-Apr-19 10:30N 29°37' W 090°42'0 0.0
2018-Apr-19 10:00N 29°37' W 090°42'0 0.0
2018-Apr-19 09:30N 29°37' W 090°42'0 0.0
2018-Apr-19 09:00N 29°37' W 090°42'0 0.8
2018-Apr-19 08:30N 29°37' W 090°41'2 4.1
2018-Apr-19 08:00N 29°36' W 090°39'3 5.7
2018-Apr-19 07:30N 29°35' W 090°36'3 5.9
2018-Apr-19 07:00N 29°34' W 090°33'  
Track history (hours):
 
Tides and Currents Weather Stations Pressure Air Temp Water Temp Dewpoint Dewpoint Depression Visibility Wind Speed Wind Dir Waves Ship Positions

Diane

Owner: Enterprise Marine Services, LLC, San Antonio, TX. More information available from US FCC via Universal Licensing System and Coast Guard Vessel Documentation Center.

Last reported at 2018-Apr-19 19:13 UTC. Time now 2018-Apr-20 12:42 UTC.
Position N 29°32' W 090°50'.

Length 24 m; draft 2.9 m.

Type: . MMSI: 367131150.

Date/timePositionNaut miles runAvg speedWind from/ knotsBaromVisibWave heightAir tempDewpointWater temp
2018-Apr-19 19:13N 29°32' W 090°50'1 6.7
2018-Apr-19 19:01N 29°32' W 090°49'3 5.6
2018-Apr-19 18:30N 29°33' W 090°45'2 4.5
2018-Apr-19 18:00N 29°34' W 090°43'1 1.1
2018-Apr-19 17:30N 29°34' W 090°43'0 0.0
2018-Apr-19 17:00N 29°34' W 090°43'0 0.0
2018-Apr-19 16:29N 29°34' W 090°43'0 0.1
2018-Apr-19 16:00N 29°34' W 090°43'0 0.0
2018-Apr-19 15:30N 29°34' W 090°43'0 0.0
2018-Apr-19 15:00N 29°34' W 090°43'0 0.0
2018-Apr-19 14:30N 29°34' W 090°43'0 0.0
2018-Apr-19 14:00N 29°34' W 090°43'0 0.0
2018-Apr-19 13:30N 29°34' W 090°43'0 0.0
2018-Apr-19 13:00N 29°34' W 090°43'0 0.0
2018-Apr-19 12:30N 29°34' W 090°43'0 0.3
2018-Apr-19 12:00N 29°34' W 090°43'0 0.0
2018-Apr-19 11:30N 29°34' W 090°43'2 3.2
2018-Apr-19 11:00N 29°35' W 090°43'2 3.0
2018-Apr-19 10:30N 29°37' W 090°42'0 0.0
2018-Apr-19 10:00N 29°37' W 090°42'0 0.0
2018-Apr-19 09:30N 29°37' W 090°42'0 0.0
2018-Apr-19 09:00N 29°37' W 090°42'0 0.8
2018-Apr-19 08:30N 29°37' W 090°41'2 4.1
2018-Apr-19 08:00N 29°36' W 090°39'3 5.7
2018-Apr-19 07:30N 29°35' W 090°36'3 5.9
2018-Apr-19 07:00N 29°34' W 090°33'  

Dump ship's entire track history